createdAt,value
2018-08-16T00:02:24.506Z,10.67
2018-08-16T00:04:58.140Z,14.23
2018-08-16T00:07:30.724Z,12.60
2018-08-16T00:10:13.004Z,11.73
2018-08-16T00:12:48.476Z,12.37
2018-08-16T00:15:22.041Z,14.23
2018-08-16T00:17:54.956Z,12.83
2018-08-16T00:20:28.181Z,16.27
2018-08-16T00:23:01.568Z,18.23
2018-08-16T00:25:34.509Z,16.40
2018-08-16T00:28:08.633Z,16.07
2018-08-16T00:30:41.977Z,18.73
2018-08-16T00:33:14.919Z,13.90
2018-08-16T00:35:47.437Z,13.20
2018-08-16T00:38:21.675Z,15.15
2018-08-16T00:40:55.192Z,15.00
2018-08-16T00:43:29.605Z,17.07
2018-08-16T00:46:02.017Z,14.80
2018-08-16T00:48:34.804Z,16.23
2018-08-16T00:51:09.149Z,16.40
2018-08-16T00:53:53.225Z,14.50
2018-08-16T00:56:26.634Z,11.80
2018-08-16T00:58:59.913Z,15.17
2018-08-16T01:01:36.369Z,14.00
2018-08-16T01:04:10.585Z,15.23
2018-08-16T01:06:44.742Z,13.57
2018-08-16T01:09:17.946Z,17.30
2018-08-16T01:11:53.713Z,15.90
2018-08-16T01:14:28.853Z,20.37
2018-08-16T01:17:02.569Z,12.57
2018-08-16T01:19:36.413Z,16.83
2018-08-16T01:22:09.593Z,19.73
2018-08-16T01:24:44.887Z,15.57
2018-08-16T01:27:17.560Z,17.48
2018-08-16T01:29:50.124Z,17.73
2018-08-16T01:32:23.112Z,14.80
2018-08-16T01:34:56.562Z,16.33
2018-08-16T01:37:29.022Z,14.73
2018-08-16T01:40:01.980Z,12.97
2018-08-16T01:42:34.840Z,12.60
2018-08-16T01:45:08.261Z,14.80
2018-08-16T01:47:41.897Z,15.30
2018-08-16T01:50:14.753Z,13.03
2018-08-16T01:52:47.887Z,17.40
2018-08-16T01:55:21.677Z,18.40
2018-08-16T01:57:55.947Z,16.90
2018-08-16T02:00:28.472Z,18.17
2018-08-16T02:03:01.912Z,24.10
2018-08-16T02:05:35.297Z,25.27
2018-08-16T02:08:08.025Z,24.17
2018-08-16T02:10:42.243Z,28.20
2018-08-16T02:13:17.444Z,24.37
2018-08-16T02:15:50.079Z,29.73
2018-08-16T02:18:23.929Z,21.73
2018-08-16T02:20:56.572Z,19.80
2018-08-16T02:23:31.498Z,16.70
2018-08-16T02:26:05.935Z,22.00
2018-08-16T02:28:42.636Z,20.93
2018-08-16T02:31:17.347Z,17.40
2018-08-16T02:33:52.398Z,18.83
2018-08-16T02:36:25.335Z,20.23
2018-08-16T02:39:01.200Z,33.20
2018-08-16T02:41:35.743Z,26.27
2018-08-16T02:44:10.693Z,24.20
2018-08-16T02:46:44.404Z,20.10
2018-08-16T02:49:17.012Z,25.20
2018-08-16T02:51:51.808Z,26.37
2018-08-16T02:54:24.463Z,26.37
2018-08-16T02:56:57.104Z,28.08
2018-08-16T02:59:29.872Z,28.50
2018-08-16T03:04:35.183Z,25.93
2018-08-16T03:07:08.034Z,28.60
2018-08-16T03:09:40.666Z,32.00
2018-08-16T03:12:13.750Z,28.23
2018-08-16T03:14:46.925Z,25.97
2018-08-16T03:17:20.552Z,25.87
2018-08-16T03:19:53.306Z,27.60
2018-08-16T03:22:26.732Z,41.67
2018-08-16T03:25:00.381Z,43.60
2018-08-16T03:27:32.728Z,36.67
2018-08-16T03:30:37.261Z,29.97
2018-08-16T03:33:10.268Z,30.43
2018-08-16T03:35:42.964Z,24.60
2018-08-16T03:38:15.844Z,31.17
2018-08-16T03:40:48.769Z,36.03
2018-08-16T03:43:21.655Z,38.07
2018-08-16T03:45:54.292Z,33.60
2018-08-16T03:48:27.583Z,36.53
2018-08-16T03:51:01.394Z,33.27
2018-08-16T03:53:34.068Z,37.27
2018-08-16T03:56:07.759Z,41.65
2018-08-16T03:58:42.720Z,51.23
2018-08-16T04:01:16.404Z,33.93
2018-08-16T04:03:49.590Z,35.60
2018-08-16T04:06:22.738Z,43.03
2018-08-16T04:08:56.080Z,42.30
2018-08-16T04:11:29.756Z,38.53
2018-08-16T04:14:07.784Z,27.60
2018-08-16T04:16:40.172Z,27.10
2018-08-16T04:19:12.773Z,34.63
2018-08-16T04:21:48.349Z,39.37
2018-08-16T04:24:21.996Z,41.37
2018-08-16T04:26:54.578Z,36.93
2018-08-16T04:29:27.477Z,42.57
2018-08-16T04:32:00.149Z,51.60
2018-08-16T04:34:32.647Z,68.40
2018-08-16T04:37:07.072Z,60.77
2018-08-16T04:39:39.659Z,65.03
2018-08-16T04:42:13.009Z,75.07
2018-08-16T04:44:47.888Z,73.80
2018-08-16T04:47:20.453Z,65.97
2018-08-16T04:49:53.094Z,67.97
2018-08-16T04:52:26.027Z,67.20
2018-08-16T04:54:58.653Z,69.53
2018-08-16T04:57:31.380Z,65.37
2018-08-16T05:00:06.688Z,57.53
2018-08-16T05:02:39.857Z,59.45
2018-08-16T05:05:12.868Z,64.25
2018-08-16T05:07:47.689Z,67.47
2018-08-16T05:10:23.564Z,63.23
2018-08-16T05:12:56.629Z,48.53
2018-08-16T05:15:29.650Z,38.78
2018-08-16T05:18:06.773Z,22.23
2018-08-16T05:20:40.101Z,19.57
2018-08-16T05:23:13.919Z,20.97
2018-08-16T05:25:46.660Z,28.50
2018-08-16T05:28:19.897Z,50.55
2018-08-16T05:30:52.676Z,49.73
2018-08-16T05:33:26.157Z,48.73
2018-08-16T05:35:58.760Z,56.43
2018-08-16T05:38:32.674Z,60.27
2018-08-16T05:41:05.344Z,60.40
2018-08-16T05:43:37.929Z,53.73
2018-08-16T05:46:10.879Z,61.07
2018-08-16T05:48:43.462Z,49.33
2018-08-16T05:51:17.748Z,53.83
2018-08-16T05:53:55.876Z,43.40
2018-08-16T05:56:29.444Z,37.70
2018-08-16T05:59:01.979Z,34.27
2018-08-16T06:01:35.784Z,32.07
2018-08-16T06:04:08.296Z,29.43
2018-08-16T06:06:42.230Z,27.13
2018-08-16T06:09:15.340Z,21.30
2018-08-16T06:11:48.148Z,21.67
2018-08-16T06:14:20.717Z,22.00
2018-08-16T06:16:53.602Z,19.73
2018-08-16T06:19:27.168Z,21.50
2018-08-16T06:21:59.836Z,17.50
2018-08-16T06:24:33.347Z,17.67
2018-08-16T06:27:06.752Z,19.70
2018-08-16T06:29:40.085Z,18.53
2018-08-16T06:32:15.514Z,19.27
2018-08-16T06:34:48.076Z,20.73
2018-08-16T06:37:21.944Z,16.10
2018-08-16T06:39:54.533Z,19.37
2018-08-16T06:42:27.188Z,19.53
2018-08-16T06:45:00.949Z,19.80
2018-08-16T06:47:34.233Z,18.03
2018-08-16T06:50:07.680Z,19.10
2018-08-16T06:52:41.561Z,16.67
2018-08-16T06:55:14.824Z,17.90
2018-08-16T06:57:49.684Z,16.20
2018-08-16T07:00:22.754Z,15.80
2018-08-16T07:02:56.802Z,16.77
2018-08-16T07:05:30.177Z,14.07
2018-08-16T07:08:02.807Z,15.27
2018-08-16T07:10:35.289Z,15.57
2018-08-16T07:13:09.616Z,17.70
2018-08-16T07:15:44.830Z,16.77
2018-08-16T07:18:17.790Z,12.43
2018-08-16T07:20:51.749Z,13.20
2018-08-16T07:23:26.366Z,14.03
2018-08-16T07:25:59.049Z,13.10
2018-08-16T07:28:31.920Z,14.77
2018-08-16T07:31:04.593Z,13.60
2018-08-16T07:33:37.102Z,11.93
2018-08-16T07:36:10.090Z,12.45
2018-08-16T07:38:43.954Z,11.70
2018-08-16T07:41:16.476Z,11.27
2018-08-16T07:43:52.528Z,10.37
2018-08-16T07:46:25.114Z,10.90
2018-08-16T07:48:57.970Z,10.47
2018-08-16T07:51:32.263Z,11.60
2018-08-16T07:54:04.909Z,11.20
2018-08-16T07:56:38.856Z,10.03
2018-08-16T07:59:12.897Z,10.10
2018-08-16T08:01:45.509Z,12.47
2018-08-16T08:04:18.487Z,10.13
2018-08-16T08:06:52.060Z,16.57
2018-08-16T08:09:25.048Z,9.73
2018-08-16T08:11:58.032Z,9.50
2018-08-16T08:14:34.149Z,11.47
2018-08-16T08:17:07.730Z,12.80
2018-08-16T08:19:49.768Z,10.97
2018-08-16T08:22:25.125Z,12.93
2018-08-16T08:24:58.981Z,13.73
2018-08-16T08:27:33.803Z,12.03
2018-08-16T08:30:13.413Z,12.40
2018-08-16T08:32:48.530Z,10.63
2018-08-16T08:35:22.618Z,13.27
2018-08-16T08:38:14.513Z,12.63
2018-08-16T08:40:48.664Z,12.50
2018-08-16T08:43:47.900Z,12.25
2018-08-16T08:46:21.270Z,14.00
2018-08-16T08:48:54.121Z,11.02
2018-08-16T08:51:28.846Z,15.73
2018-08-16T08:54:42.706Z,16.93
2018-08-16T08:57:38.175Z,13.40
2018-08-16T09:00:17.842Z,12.77
2018-08-16T09:02:52.740Z,11.60
2018-08-16T09:05:27.882Z,11.27
2018-08-16T09:08:11.019Z,13.93
2018-08-16T09:11:09.732Z,11.73
2018-08-16T09:14:06.176Z,13.80
2018-08-16T09:16:42.307Z,12.03
2018-08-16T09:19:15.802Z,11.43
2018-08-16T09:21:49.548Z,13.00
2018-08-16T09:24:30.086Z,13.67
2018-08-16T09:27:04.161Z,11.97
2018-08-16T09:30:26.385Z,10.97
2018-08-16T09:33:34.370Z,11.10
2018-08-16T09:36:07.044Z,11.12
2018-08-16T09:38:40.465Z,10.03
2018-08-16T09:41:13.065Z,9.70
2018-08-16T09:43:47.006Z,9.03
2018-08-16T09:47:17.127Z,7.73
2018-08-16T09:49:50.696Z,9.20
2018-08-16T09:52:24.139Z,8.60
2018-08-16T09:54:57.665Z,9.53
2018-08-16T09:57:35.123Z,11.70
2018-08-16T10:00:07.872Z,8.33
2018-08-16T10:02:42.716Z,9.67
2018-08-16T10:05:22.701Z,9.40
2018-08-16T10:07:58.555Z,9.27
2018-08-16T10:10:35.912Z,13.07
2018-08-16T10:13:11.357Z,8.60
2018-08-16T10:15:44.793Z,7.97
2018-08-16T10:18:18.961Z,10.47
2018-08-16T10:20:53.003Z,7.73
2018-08-16T10:23:25.565Z,8.17
2018-08-16T10:26:02.442Z,9.53
2018-08-16T10:28:37.451Z,10.30
2018-08-16T10:31:11.430Z,10.00
2018-08-16T10:33:44.984Z,7.60
2018-08-16T10:36:17.710Z,7.50
2018-08-16T10:38:51.972Z,8.60
2018-08-16T10:41:26.118Z,12.00
2018-08-16T10:43:58.793Z,10.97
2018-08-16T10:46:32.152Z,7.80
2018-08-16T10:49:05.917Z,8.13
2018-08-16T10:51:39.484Z,7.80
2018-08-16T10:54:13.956Z,7.17
2018-08-16T10:56:46.755Z,7.67
2018-08-16T10:59:20.228Z,10.10
2018-08-16T11:01:54.700Z,11.63
2018-08-16T11:04:28.644Z,8.57
2018-08-16T11:07:01.548Z,8.00
2018-08-16T11:09:34.072Z,7.93
2018-08-16T11:12:08.084Z,9.35
2018-08-16T11:14:41.907Z,7.40
2018-08-16T11:17:15.220Z,8.47
2018-08-16T11:19:49.545Z,10.33
2018-08-16T11:22:28.625Z,7.93
2018-08-16T11:25:06.260Z,9.57
2018-08-16T11:27:41.802Z,7.80
2018-08-16T11:30:18.953Z,7.77
2018-08-16T11:32:51.380Z,8.17
2018-08-16T11:35:23.993Z,7.80
2018-08-16T11:37:57.433Z,8.57
2018-08-16T11:40:30.610Z,12.13
2018-08-16T11:43:06.509Z,9.07
2018-08-16T11:45:49.738Z,7.70
2018-08-16T11:48:23.833Z,7.10
2018-08-16T11:50:56.662Z,11.77
2018-08-16T11:53:33.196Z,9.63
2018-08-16T11:56:07.867Z,7.47
2018-08-16T11:58:41.047Z,9.05
2018-08-16T12:01:14.740Z,7.87
2018-08-16T12:03:47.562Z,8.60
2018-08-16T12:06:24.373Z,7.37
2018-08-16T12:08:56.737Z,6.78
2018-08-16T12:11:29.647Z,10.63
2018-08-16T12:14:03.845Z,7.83
2018-08-16T12:16:38.043Z,10.20
2018-08-16T12:19:14.311Z,8.83
2018-08-16T12:21:50.123Z,6.07
2018-08-16T12:24:26.135Z,8.87
2018-08-16T12:27:03.636Z,8.77
2018-08-16T12:29:49.358Z,10.83
2018-08-16T12:32:27.682Z,11.93
2018-08-16T12:35:03.603Z,9.20
2018-08-16T12:37:49.586Z,8.40
2018-08-16T12:40:23.837Z,8.00
2018-08-16T12:42:57.477Z,7.80
2018-08-16T12:45:31.161Z,7.60
2018-08-16T12:48:03.797Z,8.20
2018-08-16T12:50:54.376Z,8.33
2018-08-16T12:53:36.679Z,9.03
2018-08-16T12:56:12.437Z,8.13
2018-08-16T12:58:51.326Z,9.43
2018-08-16T13:01:32.964Z,10.33
2018-08-16T13:04:10.456Z,8.33
2018-08-16T13:06:49.610Z,9.15
2018-08-16T13:09:31.230Z,9.30
2018-08-16T13:12:07.010Z,8.67
2018-08-16T13:14:45.435Z,8.00
2018-08-16T13:17:17.884Z,8.67
2018-08-16T13:19:55.808Z,9.47
2018-08-16T13:22:30.309Z,8.20
2018-08-16T13:25:06.092Z,10.90
2018-08-16T13:27:43.154Z,9.43
2018-08-16T13:30:18.931Z,9.40
2018-08-16T13:32:53.297Z,10.07
2018-08-16T13:35:31.924Z,11.13
2018-08-16T13:38:10.726Z,8.90
2018-08-16T13:40:47.227Z,9.17
2018-08-16T13:43:23.992Z,8.20
2018-08-16T13:46:04.909Z,9.00
2018-08-16T13:48:39.728Z,9.23
2018-08-16T13:51:28.062Z,9.70
2018-08-16T13:54:05.117Z,9.17
2018-08-16T13:56:37.676Z,8.98
2018-08-16T13:59:13.433Z,9.07
2018-08-16T14:01:46.139Z,10.00
2018-08-16T14:04:18.690Z,7.33
2018-08-16T14:06:55.564Z,7.93
2018-08-16T14:09:28.374Z,10.43
2018-08-16T14:12:04.240Z,7.27
2018-08-16T14:14:42.367Z,8.60
2018-08-16T14:17:15.077Z,9.30
2018-08-16T14:19:48.865Z,7.70
2018-08-16T14:22:22.756Z,10.03
2018-08-16T14:24:55.353Z,8.50
2018-08-16T14:27:28.459Z,10.47
2018-08-16T14:30:03.312Z,8.13
2018-08-16T14:32:36.545Z,8.23
2018-08-16T14:35:10.385Z,10.97
2018-08-16T14:37:43.161Z,10.97
2018-08-16T14:40:16.810Z,11.23
2018-08-16T14:42:49.285Z,7.97
2018-08-16T14:45:25.187Z,10.30
2018-08-16T14:48:08.683Z,10.83
2018-08-16T14:50:42.078Z,8.83
2018-08-16T14:53:16.458Z,8.23
2018-08-16T14:55:51.265Z,10.70
2018-08-16T14:58:27.886Z,10.53
2018-08-16T15:01:02.740Z,10.75
2018-08-16T15:03:38.741Z,9.43
2018-08-16T15:06:14.416Z,8.50
2018-08-16T15:08:48.239Z,11.17
2018-08-16T15:11:22.973Z,8.63
2018-08-16T15:13:57.766Z,8.03
2018-08-16T15:16:34.156Z,8.50
2018-08-16T15:19:08.664Z,8.33
2018-08-16T15:21:41.262Z,11.37
2018-08-16T15:24:20.096Z,9.03
2018-08-16T15:26:55.752Z,11.40
2018-08-16T15:29:28.339Z,10.05
2018-08-16T15:32:10.467Z,9.70
2018-08-16T15:34:50.432Z,8.73
2018-08-16T15:37:24.150Z,10.47
2018-08-16T15:39:57.943Z,10.40
2018-08-16T15:42:32.019Z,8.23
2018-08-16T15:45:07.446Z,8.70
2018-08-16T15:47:41.200Z,8.43
2018-08-16T15:50:19.678Z,10.33
2018-08-16T15:52:52.859Z,8.25
2018-08-16T15:55:25.847Z,10.13
2018-08-16T15:57:59.126Z,9.10
2018-08-16T16:00:34.062Z,8.77
2018-08-16T16:03:07.646Z,11.18
2018-08-16T16:05:40.482Z,10.67
2018-08-16T16:08:14.534Z,10.60
2018-08-16T16:10:51.803Z,12.00
2018-08-16T16:13:28.146Z,10.00
2018-08-16T16:16:01.027Z,11.13
2018-08-16T16:18:49.667Z,9.70
2018-08-16T16:22:08.788Z,12.83
2018-08-16T16:27:37.400Z,7.90
2018-08-16T16:30:21.533Z,8.33
2018-08-16T16:33:08.253Z,10.50
2018-08-16T16:35:44.170Z,9.67
2018-08-16T16:38:19.520Z,9.37
2018-08-16T16:40:57.894Z,7.90
2018-08-16T16:43:36.285Z,8.67
2018-08-16T16:46:12.979Z,8.80
2018-08-16T16:48:51.225Z,8.33
2018-08-16T16:51:44.493Z,10.33
2018-08-16T16:54:21.672Z,9.20
2018-08-16T16:56:56.563Z,12.47
2018-08-16T16:59:56.418Z,8.97
2018-08-16T17:02:40.388Z,9.87
2018-08-16T17:05:31.183Z,10.13
2018-08-16T17:08:10.545Z,9.57
2018-08-16T17:10:52.617Z,8.57
2018-08-16T17:13:30.636Z,8.27
2018-08-16T17:16:15.795Z,8.10
2018-08-16T17:19:14.808Z,9.07
2018-08-16T17:22:22.880Z,11.53
2018-08-16T17:24:59.009Z,8.27
2018-08-16T17:27:55.256Z,8.90
2018-08-16T17:30:44.046Z,9.33
2018-08-16T17:33:23.708Z,9.33
2018-08-16T17:36:05.000Z,8.90
2018-08-16T17:38:39.830Z,8.77
2018-08-16T17:41:15.042Z,9.90
2018-08-16T17:43:48.469Z,10.00
2018-08-16T17:46:24.737Z,8.87
2018-08-16T17:48:59.454Z,12.37
2018-08-16T17:51:37.394Z,10.23
2018-08-16T17:54:09.958Z,12.10
2018-08-16T17:56:45.189Z,8.20
2018-08-16T17:59:18.168Z,10.23
2018-08-16T18:01:52.905Z,11.63
2018-08-16T18:04:29.388Z,11.13
2018-08-16T18:07:08.718Z,10.70
2018-08-16T18:09:43.906Z,9.03
2018-08-16T18:12:38.677Z,10.77
2018-08-16T18:15:32.570Z,9.60
2018-08-16T18:18:27.465Z,9.32
2018-08-16T18:21:02.484Z,10.45
2018-08-16T18:23:44.834Z,10.63
2018-08-16T18:26:40.361Z,9.23
2018-08-16T18:29:17.521Z,9.77
2018-08-16T18:31:51.337Z,9.70
2018-08-16T18:34:43.602Z,9.33
2018-08-16T18:37:22.650Z,10.43
2018-08-16T18:40:00.148Z,10.90
2018-08-16T18:42:58.496Z,9.00
2018-08-16T18:45:37.992Z,11.70
2018-08-16T18:48:14.656Z,9.70
2018-08-16T18:50:48.847Z,9.57
2018-08-16T18:53:25.407Z,9.87
2018-08-16T18:56:04.292Z,10.13
2018-08-16T18:58:38.164Z,10.63
2018-08-16T19:01:20.230Z,9.57
2018-08-16T19:03:53.747Z,11.97
2018-08-16T19:06:29.514Z,8.60
2018-08-16T19:09:07.402Z,8.90
2018-08-16T19:11:42.462Z,9.90
2018-08-16T19:14:16.704Z,9.57
2018-08-16T19:16:51.778Z,10.87
2018-08-16T19:19:32.131Z,10.07
2018-08-16T19:22:08.064Z,11.40
2018-08-16T19:24:42.310Z,10.17
2018-08-16T19:27:22.426Z,13.53
2018-08-16T19:29:57.602Z,10.73
2018-08-16T19:32:30.879Z,12.03
2018-08-16T19:35:08.289Z,10.67
2018-08-16T19:37:45.750Z,10.18
2018-08-16T19:40:20.207Z,10.97
2018-08-16T19:42:54.652Z,12.20
2018-08-16T19:45:38.789Z,11.13
2018-08-16T19:48:12.932Z,10.50
2018-08-16T19:50:48.582Z,10.00
2018-08-16T19:53:23.117Z,9.33
2018-08-16T19:55:58.431Z,9.60
2018-08-16T19:58:31.828Z,9.80
2018-08-16T20:01:08.374Z,8.00
2018-08-16T20:03:44.988Z,10.27
2018-08-16T20:06:20.537Z,11.20
2018-08-16T20:08:54.346Z,15.53
2018-08-16T20:11:31.728Z,11.80
2018-08-16T20:14:14.989Z,12.70
2018-08-16T20:16:51.628Z,10.90
2018-08-16T20:19:29.725Z,9.97
2018-08-16T20:22:14.478Z,12.77
2018-08-16T20:24:49.923Z,10.10
2018-08-16T20:27:28.955Z,10.77
2018-08-16T20:30:06.332Z,11.27
2018-08-16T20:32:45.054Z,10.60
2018-08-16T20:35:19.691Z,10.03
2018-08-16T20:38:06.201Z,12.20
2018-08-16T20:40:42.051Z,12.50
2018-08-16T20:43:16.936Z,10.87
2018-08-16T20:45:53.259Z,10.23
2018-08-16T20:48:29.884Z,10.37
2018-08-16T20:51:06.333Z,11.77
2018-08-16T20:53:41.611Z,11.10
2018-08-16T20:56:19.348Z,11.63
2018-08-16T20:58:54.676Z,14.47
2018-08-16T21:01:31.345Z,12.73
2018-08-16T21:04:05.993Z,10.80
2018-08-16T21:06:51.886Z,12.07
2018-08-16T21:09:27.233Z,11.57
2018-08-16T21:12:06.494Z,11.83
2018-08-16T21:14:41.702Z,11.30
2018-08-16T21:17:28.867Z,14.43
2018-08-16T21:20:01.655Z,13.50
2018-08-16T21:25:46.965Z,15.87
2018-08-16T21:28:23.647Z,13.97
2018-08-16T21:34:14.028Z,14.55
2018-08-16T21:36:54.061Z,13.87
2018-08-16T21:39:33.679Z,14.13
2018-08-16T21:42:11.711Z,14.80
2018-08-16T21:44:50.143Z,13.80
2018-08-16T21:47:24.886Z,14.43
2018-08-16T21:50:00.928Z,13.83
2018-08-16T21:52:35.424Z,15.43
2018-08-16T21:55:09.089Z,14.10
2018-08-16T21:57:44.801Z,13.53
2018-08-16T22:04:09.789Z,14.55
2018-08-16T22:07:02.573Z,14.90
2018-08-16T22:12:47.429Z,14.73
2018-08-16T22:15:22.678Z,14.30
2018-08-16T22:18:15.315Z,17.53
2018-08-16T22:20:49.827Z,16.67
2018-08-16T22:23:27.902Z,15.43
2018-08-16T22:26:02.425Z,16.07
2018-08-16T22:28:36.218Z,17.23
2018-08-16T22:31:09.444Z,14.53
2018-08-16T22:33:44.454Z,15.37
2018-08-16T22:36:17.661Z,16.80
2018-08-16T22:38:51.839Z,18.87
2018-08-16T22:41:29.044Z,16.67
2018-08-16T22:44:03.428Z,14.87
2018-08-16T22:46:37.352Z,15.83
2018-08-16T22:49:10.935Z,16.93
2018-08-16T22:51:48.263Z,16.70
2018-08-16T22:54:22.205Z,16.70
2018-08-16T22:56:54.960Z,15.70
2018-08-16T22:59:28.413Z,16.47
2018-08-16T23:02:03.320Z,15.03
2018-08-16T23:04:35.882Z,15.97
2018-08-16T23:07:12.867Z,16.30
2018-08-16T23:09:46.452Z,15.87
2018-08-16T23:12:20.772Z,17.27
2018-08-16T23:14:57.802Z,15.87
2018-08-16T23:17:30.807Z,15.60
2018-08-16T23:20:06.656Z,16.03
2018-08-16T23:22:40.405Z,16.73
2018-08-16T23:25:17.932Z,16.17
2018-08-16T23:27:58.352Z,15.33
2018-08-16T23:30:32.973Z,16.20
2018-08-16T23:33:05.776Z,15.30
2018-08-16T23:35:42.163Z,16.03
2018-08-16T23:38:16.057Z,18.63
2018-08-16T23:40:48.551Z,15.20
2018-08-16T23:43:21.937Z,15.53
2018-08-16T23:45:55.172Z,16.92
2018-08-16T23:48:33.060Z,17.03
2018-08-16T23:51:07.002Z,16.53
2018-08-16T23:53:41.725Z,16.73
2018-08-16T23:56:15.360Z,16.47
2018-08-16T23:58:50.976Z,16.83
